createdAt,value
2018-03-21T00:00:52.372Z,-2.97
2018-03-21T00:01:52.526Z,-2.98
2018-03-21T00:02:52.658Z,-3.07
2018-03-21T00:03:52.801Z,-3.09
2018-03-21T00:04:52.953Z,-3.07
2018-03-21T00:05:53.090Z,-3.12
2018-03-21T00:06:53.229Z,-3.17
2018-03-21T00:07:53.380Z,-3.19
2018-03-21T00:08:53.526Z,-3.12
2018-03-21T00:09:53.668Z,-3.06
2018-03-21T00:10:53.812Z,-3.15
2018-03-21T00:11:53.956Z,-3.15
2018-03-21T00:12:54.100Z,-3.13
2018-03-21T00:13:54.239Z,-3.13
2018-03-21T00:14:54.385Z,-3.23
2018-03-21T00:15:54.530Z,-3.20
2018-03-21T00:16:54.668Z,-3.13
2018-03-21T00:17:54.814Z,-3.13
2018-03-21T00:18:54.956Z,-3.19
2018-03-21T00:19:55.097Z,-3.23
2018-03-21T00:20:55.243Z,-3.23
2018-03-21T00:21:55.377Z,-3.22
2018-03-21T00:22:55.524Z,-3.20
2018-03-21T00:23:55.669Z,-3.40
2018-03-21T00:24:55.812Z,-3.41
2018-03-21T00:25:55.956Z,-3.44
2018-03-21T00:26:56.103Z,-3.40
2018-03-21T00:27:56.245Z,-3.44
2018-03-21T00:28:56.386Z,-3.49
2018-03-21T00:29:56.531Z,-3.46
2018-03-21T00:30:56.678Z,-3.51
2018-03-21T00:31:56.821Z,-3.48
2018-03-21T00:32:57.266Z,-3.52
2018-03-21T00:33:57.113Z,-3.56
2018-03-21T00:34:57.254Z,-3.67
2018-03-21T00:35:57.407Z,-3.59
2018-03-21T00:36:57.550Z,-3.67
2018-03-21T00:37:57.685Z,-3.77
2018-03-21T00:38:57.832Z,-3.74
2018-03-21T00:39:57.984Z,-3.63
2018-03-21T00:40:58.116Z,-3.66
2018-03-21T00:41:58.268Z,-3.61
2018-03-21T00:42:58.416Z,-3.59
2018-03-21T00:43:58.545Z,-3.59
2018-03-21T00:44:58.705Z,-3.61
2018-03-21T00:45:58.834Z,-3.58
2018-03-21T00:46:58.975Z,-3.61
2018-03-21T00:47:59.123Z,-3.61
2018-03-21T00:48:59.263Z,-3.58
2018-03-21T00:49:59.406Z,-3.63
2018-03-21T00:50:59.547Z,-3.69
2018-03-21T00:51:59.693Z,-3.67
2018-03-21T00:52:59.836Z,-3.69
2018-03-21T00:53:59.980Z,-3.78
2018-03-21T00:55:00.127Z,-3.93
2018-03-21T00:56:00.269Z,-3.82
2018-03-21T00:57:00.462Z,-4.10
2018-03-21T00:58:00.555Z,-4.21
2018-03-21T00:59:00.699Z,-3.98
2018-03-21T01:00:01.100Z,-4.09
2018-03-21T01:01:00.988Z,-4.09
2018-03-21T01:02:01.135Z,-4.22
2018-03-21T01:03:01.532Z,-4.17
2018-03-21T01:04:01.421Z,-4.04
2018-03-21T01:05:01.568Z,-4.03
2018-03-21T01:06:01.709Z,-3.96
2018-03-21T01:07:01.856Z,-3.95
2018-03-21T01:08:02.004Z,-3.92
2018-03-21T01:09:02.146Z,-4.07
2018-03-21T01:10:02.292Z,-4.14
2018-03-21T01:11:02.431Z,-4.13
2018-03-21T01:12:02.579Z,-4.10
2018-03-21T01:13:02.718Z,-4.14
2018-03-21T01:14:02.866Z,-4.14
2018-03-21T01:15:03.011Z,-4.25
2018-03-21T01:16:03.151Z,-4.13
2018-03-21T01:17:03.294Z,-4.20
2018-03-21T01:18:03.439Z,-4.22
2018-03-21T01:19:03.575Z,-4.09
2018-03-21T01:20:03.721Z,-4.22
2018-03-21T01:21:03.863Z,-4.21
2018-03-21T01:22:04.007Z,-4.09
2018-03-21T01:23:04.158Z,-4.20
2018-03-21T01:24:04.327Z,-4.09
2018-03-21T01:25:04.441Z,-4.07
2018-03-21T01:26:04.582Z,-4.12
2018-03-21T01:28:04.861Z,-4.09
2018-03-21T01:29:05.007Z,-4.10
2018-03-21T01:30:05.151Z,-4.10
2018-03-21T01:31:05.291Z,-4.07
2018-03-21T01:32:05.440Z,-4.22
2018-03-21T01:33:05.581Z,-4.30
2018-03-21T01:34:05.724Z,-4.28
2018-03-21T01:35:05.871Z,-4.21
2018-03-21T01:36:06.006Z,-4.28
2018-03-21T01:37:06.160Z,-4.31
2018-03-21T01:38:06.313Z,-4.32
2018-03-21T01:39:06.815Z,-4.48
2018-03-21T01:40:06.585Z,-4.50
2018-03-21T01:41:06.724Z,-4.66
2018-03-21T01:43:07.004Z,-4.98
2018-03-21T01:44:07.147Z,-4.89
2018-03-21T01:45:07.679Z,-4.95
2018-03-21T01:46:07.438Z,-4.84
2018-03-21T01:47:07.577Z,-4.95
2018-03-21T01:48:07.720Z,-4.99
2018-03-21T01:49:07.865Z,-4.99
2018-03-21T01:50:08.004Z,-5.03
2018-03-21T01:51:08.164Z,-5.00
2018-03-21T01:52:08.297Z,-5.00
2018-03-21T01:53:08.445Z,-5.08
2018-03-21T01:54:08.586Z,-5.10
2018-03-21T01:55:08.725Z,-5.13
2018-03-21T01:56:08.862Z,-5.21
2018-03-21T01:57:09.008Z,-5.24
2018-03-21T01:58:09.161Z,-5.18
2018-03-21T01:59:09.295Z,-5.13
2018-03-21T02:00:09.439Z,-5.13
2018-03-21T02:01:09.588Z,-5.10
2018-03-21T02:02:09.729Z,-5.17
2018-03-21T02:03:09.858Z,-5.27
2018-03-21T02:04:10.048Z,-5.38
2018-03-21T02:05:10.194Z,-5.31
2018-03-21T02:06:10.349Z,-5.39
2018-03-21T02:07:10.465Z,-5.27
2018-03-21T02:08:10.608Z,-5.18
2018-03-21T02:09:10.877Z,-5.14
2018-03-21T02:10:10.901Z,-5.22
2018-03-21T02:11:11.045Z,-5.25
2018-03-21T02:12:11.186Z,-5.33
2018-03-21T02:13:11.328Z,-5.25
2018-03-21T02:14:11.476Z,-5.19
2018-03-21T02:15:11.616Z,-5.18
2018-03-21T02:16:11.752Z,-5.18
2018-03-21T02:17:11.897Z,-5.14
2018-03-21T02:18:12.041Z,-5.08
2018-03-21T02:19:12.181Z,-4.99
2018-03-21T02:20:12.329Z,-4.91
2018-03-21T02:21:12.741Z,-4.89
2018-03-21T02:22:12.612Z,-4.75
2018-03-21T02:23:12.754Z,-4.84
2018-03-21T02:24:12.900Z,-4.92
2018-03-21T02:25:13.042Z,-4.98
2018-03-21T02:26:13.186Z,-5.14
2018-03-21T02:27:13.329Z,-5.19
2018-03-21T02:28:13.470Z,-5.19
2018-03-21T02:29:13.612Z,-5.19
2018-03-21T02:30:13.756Z,-5.02
2018-03-21T02:31:13.901Z,-5.10
2018-03-21T02:32:14.043Z,-5.08
2018-03-21T02:33:14.201Z,-5.06
2018-03-21T02:34:14.322Z,-4.95
2018-03-21T02:35:14.474Z,-4.89
2018-03-21T02:36:14.688Z,-5.13
2018-03-21T02:37:14.751Z,-5.14
2018-03-21T02:38:14.897Z,-5.09
2018-03-21T02:40:15.175Z,-5.24
2018-03-21T02:41:15.322Z,-5.17
2018-03-21T02:42:15.461Z,-5.25
2018-03-21T02:43:15.604Z,-5.03
2018-03-21T02:44:15.744Z,-5.08
2018-03-21T02:45:15.889Z,-5.02
2018-03-21T02:46:16.029Z,-4.95
2018-03-21T02:47:16.176Z,-4.92
2018-03-21T02:48:16.339Z,-4.96
2018-03-21T02:49:16.451Z,-5.02
2018-03-21T02:50:16.596Z,-4.99
2018-03-21T02:51:16.746Z,-4.89
2018-03-21T02:52:16.880Z,-4.89
2018-03-21T02:53:17.020Z,-4.87
2018-03-21T02:54:17.171Z,-4.96
2018-03-21T02:55:17.308Z,-4.91
2018-03-21T02:56:17.456Z,-4.99
2018-03-21T02:57:17.593Z,-4.88
2018-03-21T02:58:17.733Z,-4.82
2018-03-21T02:59:17.876Z,-4.99
2018-03-21T03:00:18.019Z,-5.06
2018-03-21T03:01:18.164Z,-5.08
2018-03-21T03:02:18.310Z,-4.98
2018-03-21T03:03:18.709Z,-4.99
2018-03-21T03:04:18.600Z,-4.99
2018-03-21T03:05:18.739Z,-4.96
2018-03-21T03:06:19.120Z,-4.82
2018-03-21T03:07:19.091Z,-5.00
2018-03-21T03:08:19.167Z,-4.99
2018-03-21T03:09:19.317Z,-5.02
2018-03-21T03:10:19.453Z,-5.14
2018-03-21T03:11:19.600Z,-5.24
2018-03-21T03:12:19.740Z,-5.43
2018-03-21T03:13:19.883Z,-5.56
2018-03-21T03:14:20.027Z,-5.39
2018-03-21T03:15:20.177Z,-5.36
2018-03-21T03:16:20.320Z,-5.40
2018-03-21T03:17:20.459Z,-5.22
2018-03-21T03:18:20.608Z,-5.28
2018-03-21T03:19:20.742Z,-5.14
2018-03-21T03:20:20.886Z,-5.28
2018-03-21T03:21:21.274Z,-5.24
2018-03-21T03:22:21.174Z,-5.24
2018-03-21T03:23:21.312Z,-5.29
2018-03-21T03:24:21.463Z,-5.22
2018-03-21T03:25:21.603Z,-5.22
2018-03-21T03:26:21.749Z,-5.38
2018-03-21T03:27:21.891Z,-5.31
2018-03-21T03:28:22.037Z,-5.42
2018-03-21T03:29:22.181Z,-5.43
2018-03-21T03:30:22.329Z,-5.39
2018-03-21T03:31:22.462Z,-5.39
2018-03-21T03:32:22.604Z,-5.46
2018-03-21T03:33:22.800Z,-5.61
2018-03-21T03:34:22.884Z,-5.72
2018-03-21T03:35:23.028Z,-5.63
2018-03-21T03:36:23.177Z,-5.75
2018-03-21T03:37:23.309Z,-5.85
2018-03-21T03:38:23.455Z,-5.82
2018-03-21T03:39:23.600Z,-5.82
2018-03-21T03:40:23.737Z,-5.99
2018-03-21T03:41:23.881Z,-5.96
2018-03-21T03:42:24.024Z,-5.97
2018-03-21T03:43:24.158Z,-5.97
2018-03-21T03:44:24.301Z,-6.08
2018-03-21T03:45:24.696Z,-5.93
2018-03-21T03:46:24.585Z,-5.92
2018-03-21T03:47:24.726Z,-5.89
2018-03-21T03:48:24.890Z,-6.00
2018-03-21T03:49:25.016Z,-5.90
2018-03-21T03:50:25.161Z,-5.85
2018-03-21T03:51:25.303Z,-5.82
2018-03-21T03:52:25.447Z,-5.76
2018-03-21T03:53:25.589Z,-5.75
2018-03-21T03:54:25.729Z,-5.81
2018-03-21T03:55:25.876Z,-5.95
2018-03-21T03:56:26.017Z,-5.96
2018-03-21T03:57:26.161Z,-5.97
2018-03-21T03:58:26.300Z,-6.11
2018-03-21T03:59:26.442Z,-6.20
2018-03-21T04:00:26.596Z,-6.21
2018-03-21T04:01:26.729Z,-6.46
2018-03-21T04:02:26.870Z,-6.47
2018-03-21T04:03:27.260Z,-6.47
2018-03-21T04:04:27.154Z,-6.41
2018-03-21T04:05:27.306Z,-6.38
2018-03-21T04:06:27.440Z,-6.49
2018-03-21T04:07:27.585Z,-6.52
2018-03-21T04:08:27.728Z,-6.65
2018-03-21T04:09:27.869Z,-6.63
2018-03-21T04:10:28.016Z,-6.54
2018-03-21T04:11:28.151Z,-6.60
2018-03-21T04:12:28.296Z,-6.52
2018-03-21T04:13:28.435Z,-6.60
2018-03-21T04:14:28.576Z,-6.56
2018-03-21T04:15:28.720Z,-6.56
2018-03-21T04:16:28.864Z,-6.61
2018-03-21T04:17:29.039Z,-6.54
2018-03-21T04:18:29.193Z,-6.56
2018-03-21T04:19:29.324Z,-6.60
2018-03-21T04:20:29.456Z,-6.68
2018-03-21T04:21:29.606Z,-6.63
2018-03-21T04:22:29.748Z,-6.60
2018-03-21T04:23:29.889Z,-6.36
2018-03-21T04:24:30.029Z,-6.32
2018-03-21T04:25:30.170Z,-6.18
2018-03-21T04:26:30.316Z,-6.11
2018-03-21T04:27:30.708Z,-6.10
2018-03-21T04:28:30.598Z,-6.05
2018-03-21T04:29:30.738Z,-6.00
2018-03-21T04:30:31.125Z,-6.00
2018-03-21T04:31:31.022Z,-6.03
2018-03-21T04:32:31.170Z,-5.99
2018-03-21T04:33:31.555Z,-5.96
2018-03-21T04:34:31.453Z,-5.90
2018-03-21T04:35:31.597Z,-5.86
2018-03-21T04:36:31.737Z,-5.90
2018-03-21T04:37:31.883Z,-5.86
2018-03-21T04:38:32.024Z,-5.75
2018-03-21T04:39:32.171Z,-5.92
2018-03-21T04:40:32.312Z,-5.74
2018-03-21T04:41:32.451Z,-5.79
2018-03-21T04:42:32.844Z,-5.86
2018-03-21T04:43:32.739Z,-5.86
2018-03-21T04:44:32.889Z,-5.75
2018-03-21T04:45:33.267Z,-5.85
2018-03-21T04:46:33.172Z,-5.89
2018-03-21T04:47:33.312Z,-5.85
2018-03-21T04:48:33.454Z,-5.92
2018-03-21T04:49:33.599Z,-5.89
2018-03-21T04:50:33.738Z,-5.92
2018-03-21T04:51:33.879Z,-5.93
2018-03-21T04:52:34.022Z,-5.78
2018-03-21T04:53:34.167Z,-5.86
2018-03-21T04:54:34.555Z,-5.95
2018-03-21T04:55:34.446Z,-5.89
2018-03-21T04:56:34.606Z,-6.02
2018-03-21T04:57:34.967Z,-6.05
2018-03-21T04:58:34.870Z,-6.00
2018-03-21T04:59:35.012Z,-6.08
2018-03-21T05:00:35.157Z,-6.17
2018-03-21T05:01:35.297Z,-6.05
2018-03-21T05:02:35.442Z,-6.21
2018-03-21T05:03:35.582Z,-6.38
2018-03-21T05:04:35.733Z,-6.34
2018-03-21T05:05:35.873Z,-6.42
2018-03-21T05:06:36.024Z,-6.36
2018-03-21T05:07:36.157Z,-6.49
2018-03-21T05:08:36.297Z,-6.66
2018-03-21T05:09:36.678Z,-6.66
2018-03-21T05:10:36.585Z,-6.69
2018-03-21T05:11:36.726Z,-6.72
2018-03-21T05:12:36.873Z,-6.68
2018-03-21T05:13:37.009Z,-6.68
2018-03-21T05:14:37.153Z,-6.66
2018-03-21T05:15:37.643Z,-6.66
2018-03-21T05:16:37.437Z,-6.61
2018-03-21T05:17:37.577Z,-6.54
2018-03-21T05:18:37.724Z,-6.44
2018-03-21T05:19:37.862Z,-6.38
2018-03-21T05:20:38.004Z,-6.41
2018-03-21T05:21:38.439Z,-6.44
2018-03-21T05:22:38.291Z,-6.38
2018-03-21T05:23:38.434Z,-6.39
2018-03-21T05:24:38.578Z,-6.35
2018-03-21T05:25:38.708Z,-6.35
2018-03-21T05:26:38.858Z,-6.31
2018-03-21T05:27:39.353Z,-6.41
2018-03-21T05:28:39.138Z,-6.39
2018-03-21T05:29:39.291Z,-6.39
2018-03-21T05:30:39.431Z,-6.50
2018-03-21T05:31:39.584Z,-6.46
2018-03-21T05:32:39.727Z,-6.41
2018-03-21T05:33:39.858Z,-6.44
2018-03-21T05:34:40.013Z,-6.52
2018-03-21T05:35:40.149Z,-6.42
2018-03-21T05:36:40.299Z,-6.35
2018-03-21T05:37:40.430Z,-6.38
2018-03-21T05:38:40.574Z,-6.39
2018-03-21T05:39:41.004Z,-6.34
2018-03-21T05:40:40.859Z,-6.21
2018-03-21T05:41:40.989Z,-6.36
2018-03-21T05:42:41.139Z,-6.35
2018-03-21T05:43:41.280Z,-6.14
2018-03-21T05:44:41.423Z,-6.21
2018-03-21T05:45:41.565Z,-6.10
2018-03-21T05:46:41.708Z,-6.14
2018-03-21T05:47:41.854Z,-6.08
2018-03-21T05:48:41.992Z,-6.07
2018-03-21T05:49:42.140Z,-6.05
2018-03-21T05:50:42.281Z,-6.14
2018-03-21T05:51:42.425Z,-6.24
2018-03-21T05:52:42.567Z,-6.34
2018-03-21T05:53:42.712Z,-6.31
2018-03-21T05:54:42.849Z,-6.32
2018-03-21T05:55:42.992Z,-6.31
2018-03-21T05:56:43.160Z,-6.47
2018-03-21T05:57:43.270Z,-6.53
2018-03-21T05:58:43.416Z,-6.42
2018-03-21T05:59:43.560Z,-6.50
2018-03-21T06:00:43.704Z,-6.52
2018-03-21T06:01:43.843Z,-6.36
2018-03-21T06:02:43.984Z,-6.26
2018-03-21T06:03:44.131Z,-6.21
2018-03-21T06:04:44.274Z,-6.15
2018-03-21T06:05:44.415Z,-6.05
2018-03-21T06:06:44.555Z,-5.99
2018-03-21T06:07:44.696Z,-6.07
2018-03-21T06:08:44.888Z,-5.99
2018-03-21T06:09:45.003Z,-5.93
2018-03-21T06:10:45.125Z,-5.92
2018-03-21T06:11:45.267Z,-5.85
2018-03-21T06:12:45.410Z,-5.79
2018-03-21T06:13:45.561Z,-5.84
2018-03-21T06:14:45.697Z,-5.72
2018-03-21T06:15:45.854Z,-5.78
2018-03-21T06:16:45.994Z,-5.61
2018-03-21T06:17:46.136Z,-5.61
2018-03-21T06:18:46.272Z,-5.60
2018-03-21T06:19:46.415Z,-5.53
2018-03-21T06:20:46.560Z,-5.56
2018-03-21T06:21:46.699Z,-5.54
2018-03-21T06:22:46.843Z,-5.45
2018-03-21T06:23:46.987Z,-5.53
2018-03-21T06:24:47.131Z,-5.54
2018-03-21T06:25:47.273Z,-5.51
2018-03-21T06:26:47.416Z,-5.29
2018-03-21T06:27:47.561Z,-5.31
2018-03-21T06:28:47.703Z,-5.28
2018-03-21T06:29:47.848Z,-5.18
2018-03-21T06:30:47.995Z,-5.35
2018-03-21T06:31:48.179Z,-5.36
2018-03-21T06:32:48.282Z,-5.28
2018-03-21T06:33:48.432Z,-5.38
2018-03-21T06:34:48.565Z,-5.22
2018-03-21T06:35:48.712Z,-5.28
2018-03-21T06:36:48.853Z,-5.31
2018-03-21T06:37:48.994Z,-5.38
2018-03-21T06:38:49.139Z,-5.39
2018-03-21T06:39:49.282Z,-5.39
2018-03-21T06:40:49.429Z,-5.36
2018-03-21T06:41:49.568Z,-5.45
2018-03-21T06:42:49.717Z,-5.36
2018-03-21T06:43:49.854Z,-5.25
2018-03-21T06:44:50.001Z,-5.09
2018-03-21T06:45:50.143Z,-5.06
2018-03-21T06:46:50.284Z,-5.09
2018-03-21T06:47:50.430Z,-5.13
2018-03-21T06:48:50.575Z,-5.09
2018-03-21T06:49:50.719Z,-5.05
2018-03-21T06:50:50.874Z,-5.03
2018-03-21T06:51:51.005Z,-4.98
2018-03-21T06:52:51.155Z,-4.99
2018-03-21T06:53:51.291Z,-4.88
2018-03-21T06:54:51.434Z,-4.87
2018-03-21T06:55:51.579Z,-4.84
2018-03-21T06:56:51.731Z,-4.60
2018-03-21T06:57:51.868Z,-4.66
2018-03-21T06:58:52.005Z,-4.63
2018-03-21T06:59:52.155Z,-4.61
2018-03-21T07:00:52.636Z,-4.60
2018-03-21T07:01:52.437Z,-4.55
2018-03-21T07:02:52.586Z,-4.50
2018-03-21T07:03:53.009Z,-4.45
2018-03-21T07:04:52.867Z,-4.43
2018-03-21T07:05:53.016Z,-4.41
2018-03-21T07:06:53.441Z,-4.45
2018-03-21T07:07:53.316Z,-4.49
2018-03-21T07:08:53.456Z,-4.43
2018-03-21T07:09:53.595Z,-4.27
2018-03-21T07:10:53.743Z,-4.31
2018-03-21T07:11:53.882Z,-4.31
2018-03-21T07:12:54.026Z,-4.25
2018-03-21T07:13:54.167Z,-4.13
2018-03-21T07:14:54.309Z,-4.02
2018-03-21T07:15:54.738Z,-3.93
2018-03-21T07:16:54.596Z,-3.93
2018-03-21T07:17:54.742Z,-3.89
2018-03-21T07:18:55.174Z,-3.72
2018-03-21T07:19:55.029Z,-3.56
2018-03-21T07:20:55.175Z,-3.15
2018-03-21T07:21:55.321Z,-2.44
2018-03-21T07:22:55.467Z,-1.64
2018-03-21T07:23:55.617Z,-1.11
2018-03-21T07:24:55.749Z,-0.21
2018-03-21T07:25:55.907Z,0.49
2018-03-21T07:26:56.042Z,0.80
2018-03-21T07:27:56.215Z,1.24
2018-03-21T07:28:56.332Z,1.50
2018-03-21T07:29:56.477Z,1.89
2018-03-21T07:30:56.631Z,2.15
2018-03-21T07:31:56.771Z,2.26
2018-03-21T07:32:56.918Z,2.51
2018-03-21T07:33:57.073Z,2.75
2018-03-21T07:34:57.212Z,2.95
2018-03-21T07:35:57.363Z,2.97
2018-03-21T07:36:57.515Z,3.36
2018-03-21T07:37:57.660Z,3.55
2018-03-21T07:38:57.817Z,3.59
2018-03-21T07:39:57.969Z,3.77
2018-03-21T07:40:58.115Z,3.94
2018-03-21T07:41:58.254Z,4.19
2018-03-21T07:42:58.408Z,4.50
2018-03-21T07:43:58.556Z,4.78
2018-03-21T07:44:58.716Z,4.37
2018-03-21T07:45:58.876Z,4.59
2018-03-21T07:46:59.001Z,4.84
2018-03-21T07:47:59.151Z,4.90
2018-03-21T07:48:59.307Z,5.00
2018-03-21T07:49:59.457Z,4.75
2018-03-21T07:50:59.611Z,5.18
2018-03-21T07:51:59.761Z,5.62
2018-03-21T07:52:59.909Z,5.65
2018-03-21T07:54:00.070Z,5.54
2018-03-21T07:55:00.220Z,5.71
2018-03-21T07:56:00.433Z,6.01
2018-03-21T07:57:00.525Z,6.08
2018-03-21T07:58:00.680Z,6.02
2018-03-21T07:59:00.833Z,5.98
2018-03-21T08:00:00.991Z,6.30
2018-03-21T08:01:01.135Z,6.17
2018-03-21T08:02:01.290Z,6.28
2018-03-21T08:03:01.439Z,6.24
2018-03-21T08:04:01.593Z,6.07
2018-03-21T08:05:01.750Z,6.22
2018-03-21T08:06:01.897Z,6.31
2018-03-21T08:07:02.054Z,6.60
2018-03-21T08:08:02.208Z,6.64
2018-03-21T08:09:02.355Z,6.51
2018-03-21T08:10:02.512Z,6.62
2018-03-21T08:11:02.907Z,6.56
2018-03-21T08:12:02.829Z,6.54
2018-03-21T08:13:02.968Z,7.13
2018-03-21T08:15:03.273Z,7.02
2018-03-21T08:16:03.422Z,7.07
2018-03-21T08:17:03.582Z,7.00
2018-03-21T08:18:03.738Z,7.03
2018-03-21T08:19:03.880Z,6.82
2018-03-21T08:20:04.036Z,7.35
2018-03-21T08:21:04.189Z,7.43
2018-03-21T08:22:04.347Z,7.43
2018-03-21T08:23:04.498Z,7.67
2018-03-21T08:24:04.659Z,7.72
2018-03-21T08:25:04.829Z,8.16
2018-03-21T08:26:04.959Z,8.10
2018-03-21T08:27:05.110Z,8.37
2018-03-21T08:28:05.263Z,8.81
2018-03-21T08:29:05.453Z,8.60
2018-03-21T08:30:05.575Z,8.92
2018-03-21T08:31:05.730Z,9.25
2018-03-21T08:32:05.933Z,9.13
2018-03-21T08:33:06.027Z,8.94
2018-03-21T08:34:06.182Z,8.91
2018-03-21T08:35:06.339Z,9.13
2018-03-21T08:36:06.489Z,9.26
2018-03-21T08:37:06.669Z,9.39
2018-03-21T08:38:06.827Z,9.37
2018-03-21T08:39:07.236Z,9.48
2018-03-21T08:40:07.126Z,9.16
2018-03-21T08:41:07.278Z,9.02
2018-03-21T08:42:07.436Z,8.85
2018-03-21T08:43:07.591Z,9.16
2018-03-21T08:44:07.750Z,9.64
2018-03-21T08:45:07.890Z,9.99
2018-03-21T08:46:08.047Z,9.86
2018-03-21T08:47:08.203Z,9.50
2018-03-21T08:48:08.379Z,9.54
2018-03-21T08:49:08.508Z,9.34
2018-03-21T08:50:08.667Z,9.04
2018-03-21T08:51:08.837Z,8.99
2018-03-21T08:52:08.974Z,8.99
2018-03-21T08:53:09.119Z,8.67
2018-03-21T08:54:09.271Z,8.71
2018-03-21T08:55:09.429Z,8.82
2018-03-21T08:56:09.586Z,8.56
2018-03-21T08:57:09.737Z,8.52
2018-03-21T08:58:09.894Z,8.45
2018-03-21T08:59:10.047Z,8.38
2018-03-21T09:00:10.203Z,8.28
2018-03-21T09:01:10.351Z,8.44
2018-03-21T09:02:10.509Z,8.48
2018-03-21T09:03:10.664Z,8.46
2018-03-21T09:04:10.811Z,8.45
2018-03-21T09:05:10.966Z,8.55
2018-03-21T09:06:11.121Z,8.67
2018-03-21T09:07:11.274Z,8.99
2018-03-21T09:08:11.430Z,8.74
2018-03-21T09:09:11.671Z,8.67
2018-03-21T09:10:11.809Z,8.61
2018-03-21T09:11:11.904Z,8.34
2018-03-21T09:12:12.060Z,8.15
2018-03-21T09:13:12.207Z,7.98
2018-03-21T09:14:12.355Z,8.19
2018-03-21T09:15:12.503Z,8.08
2018-03-21T09:16:12.657Z,8.13
2018-03-21T09:17:12.813Z,8.00
2018-03-21T09:18:12.964Z,7.79
2018-03-21T09:19:13.136Z,7.88
2018-03-21T09:20:13.277Z,7.83
2018-03-21T09:21:13.437Z,7.95
2018-03-21T09:22:13.602Z,8.19
2018-03-21T09:23:13.746Z,8.27
2018-03-21T09:24:13.914Z,8.36
2018-03-21T09:25:14.052Z,8.51
2018-03-21T09:26:14.212Z,8.60
2018-03-21T09:27:14.368Z,8.30
2018-03-21T09:28:14.519Z,8.20
2018-03-21T09:29:14.671Z,8.23
2018-03-21T09:30:14.829Z,8.20
2018-03-21T09:31:14.979Z,8.19
2018-03-21T09:32:15.134Z,8.05
2018-03-21T09:33:15.297Z,7.82
2018-03-21T09:34:15.439Z,7.90
2018-03-21T09:35:15.602Z,7.77
2018-03-21T09:36:15.747Z,7.83
2018-03-21T09:37:15.916Z,7.91
2018-03-21T09:38:16.066Z,7.87
2018-03-21T09:39:16.225Z,7.82
2018-03-21T09:40:16.373Z,7.75
2018-03-21T09:41:16.536Z,7.56
2018-03-21T09:42:16.676Z,7.58
2018-03-21T09:43:16.829Z,7.53
2018-03-21T09:45:17.133Z,7.66
2018-03-21T09:46:17.287Z,7.60
2018-03-21T09:47:17.435Z,7.60
2018-03-21T09:48:17.589Z,7.42
2018-03-21T09:49:17.742Z,7.33
2018-03-21T09:50:17.894Z,7.35
2018-03-21T09:51:18.045Z,7.15
2018-03-21T09:52:18.208Z,7.28
2018-03-21T09:53:18.355Z,7.33
2018-03-21T09:54:18.509Z,7.31
2018-03-21T09:55:18.694Z,7.45
2018-03-21T09:56:18.816Z,7.58
2018-03-21T09:57:18.979Z,7.67
2018-03-21T09:58:19.121Z,7.79
2018-03-21T09:59:19.276Z,7.66
2018-03-21T10:00:19.428Z,7.53
2018-03-21T10:01:19.585Z,7.61
2018-03-21T10:02:19.719Z,7.39
2018-03-21T10:03:19.858Z,7.51
2018-03-21T10:04:20.019Z,7.45
2018-03-21T10:05:20.164Z,7.53
2018-03-21T10:06:20.402Z,7.60
2018-03-21T10:07:20.469Z,7.61
2018-03-21T10:08:20.623Z,7.61
2018-03-21T10:10:20.926Z,7.54
2018-03-21T10:11:21.075Z,7.31
2018-03-21T10:12:21.485Z,7.39
2018-03-21T10:13:21.384Z,7.35
2018-03-21T10:14:21.587Z,7.43
2018-03-21T10:15:21.688Z,7.45
2018-03-21T10:16:21.830Z,7.63
2018-03-21T10:17:21.988Z,7.72
2018-03-21T10:18:22.140Z,7.69
2018-03-21T10:19:22.291Z,7.51
2018-03-21T10:20:22.445Z,7.42
2018-03-21T10:21:22.845Z,7.28
2018-03-21T10:22:22.747Z,7.36
2018-03-21T10:23:22.925Z,7.20
2018-03-21T10:24:23.295Z,7.35
2018-03-21T10:25:23.202Z,7.47
2018-03-21T10:26:23.366Z,7.48
2018-03-21T10:27:23.508Z,7.54
2018-03-21T10:28:23.667Z,7.58
2018-03-21T10:29:23.814Z,7.54
2018-03-21T10:30:23.955Z,7.53
2018-03-21T10:31:24.108Z,7.61
2018-03-21T10:32:24.271Z,7.80
2018-03-21T10:33:24.414Z,7.82
2018-03-21T10:34:24.565Z,7.73
2018-03-21T10:35:24.719Z,7.87
2018-03-21T10:36:24.876Z,7.80
2018-03-21T10:37:25.025Z,8.05
2018-03-21T10:38:25.179Z,8.23
2018-03-21T10:39:25.334Z,8.06
2018-03-21T10:40:25.487Z,8.06
2018-03-21T10:41:25.641Z,8.03
2018-03-21T10:42:25.796Z,7.98
2018-03-21T10:43:25.965Z,7.94
2018-03-21T10:44:26.096Z,7.87
2018-03-21T10:45:26.247Z,7.69
2018-03-21T10:46:26.402Z,7.60
2018-03-21T10:47:26.542Z,7.57
2018-03-21T10:48:26.697Z,7.72
2018-03-21T10:49:26.855Z,7.60
2018-03-21T10:50:27.003Z,7.75
2018-03-21T10:51:27.161Z,7.75
2018-03-21T10:52:38.777Z,7.88
2018-03-21T10:53:27.467Z,7.94
2018-03-21T10:54:27.628Z,7.93
2018-03-21T10:55:27.780Z,7.79
2018-03-21T10:56:27.922Z,7.83
2018-03-21T10:57:28.075Z,8.00
2018-03-21T10:58:28.233Z,8.10
2018-03-21T10:59:28.386Z,7.93
2018-03-21T11:00:28.538Z,7.94
2018-03-21T11:01:28.696Z,7.91
2018-03-21T11:02:28.856Z,8.01
2018-03-21T11:03:29.006Z,7.94
2018-03-21T11:04:29.165Z,7.82
2018-03-21T11:05:29.310Z,7.70
2018-03-21T11:06:29.563Z,7.58
2018-03-21T11:07:29.611Z,7.47
2018-03-21T11:08:29.768Z,7.50
2018-03-21T11:09:29.916Z,7.47
2018-03-21T11:10:30.078Z,7.45
2018-03-21T11:11:30.216Z,7.29
2018-03-21T11:12:30.370Z,7.32
2018-03-21T11:13:30.554Z,7.38
2018-03-21T11:14:30.670Z,7.60
2018-03-21T11:15:30.821Z,7.69
2018-03-21T11:16:30.978Z,7.82
2018-03-21T11:17:31.129Z,7.67
2018-03-21T11:18:31.287Z,7.79
2018-03-21T11:19:31.456Z,7.80
2018-03-21T11:20:31.575Z,7.82
2018-03-21T11:21:31.731Z,7.80
2018-03-21T11:22:31.882Z,7.80
2018-03-21T11:23:32.038Z,7.91
2018-03-21T11:24:32.192Z,8.12
2018-03-21T11:25:32.349Z,8.31
2018-03-21T11:26:32.500Z,8.20
2018-03-21T11:27:32.655Z,8.06
2018-03-21T11:28:32.802Z,8.08
2018-03-21T11:29:32.961Z,8.20
2018-03-21T11:30:33.094Z,8.26
2018-03-21T11:31:33.252Z,8.20
2018-03-21T11:32:33.403Z,8.15
2018-03-21T11:33:33.563Z,8.12
2018-03-21T11:34:33.715Z,8.03
2018-03-21T11:35:33.865Z,8.05
2018-03-21T11:36:34.026Z,8.09
2018-03-21T11:37:34.174Z,8.13
2018-03-21T11:38:34.333Z,8.38
2018-03-21T11:39:34.475Z,8.37
2018-03-21T11:40:34.630Z,8.31
2018-03-21T11:41:34.787Z,8.19
2018-03-21T11:42:34.962Z,8.26
2018-03-21T11:43:35.091Z,8.42
2018-03-21T11:44:35.248Z,8.36
2018-03-21T11:45:35.397Z,8.31
2018-03-21T11:46:35.557Z,8.31
2018-03-21T11:47:35.704Z,8.37
2018-03-21T11:48:35.859Z,8.30
2018-03-21T11:49:36.011Z,8.24
2018-03-21T11:50:36.160Z,8.24
2018-03-21T11:51:36.599Z,8.19
2018-03-21T11:52:36.466Z,8.31
2018-03-21T11:53:36.629Z,8.36
2018-03-21T11:54:36.772Z,8.49
2018-03-21T11:55:36.933Z,8.49
2018-03-21T11:56:37.073Z,8.56
2018-03-21T11:57:37.229Z,8.48
2018-03-21T11:58:37.378Z,8.48
2018-03-21T11:59:37.540Z,8.53
2018-03-21T12:00:37.698Z,8.63
2018-03-21T12:01:37.835Z,8.66
2018-03-21T12:02:37.995Z,8.84
2018-03-21T12:03:38.151Z,8.99
2018-03-21T12:04:38.303Z,8.76
2018-03-21T12:05:38.474Z,8.64
2018-03-21T12:06:38.629Z,8.70
2018-03-21T12:07:38.779Z,8.60
2018-03-21T12:08:39.071Z,8.46
2018-03-21T12:09:39.080Z,8.66
2018-03-21T12:10:39.232Z,8.61
2018-03-21T12:11:39.396Z,8.64
2018-03-21T12:12:39.540Z,8.56
2018-03-21T12:13:39.695Z,8.66
2018-03-21T12:14:39.902Z,8.52
2018-03-21T12:15:40.011Z,8.45
2018-03-21T12:16:40.161Z,8.52
2018-03-21T12:17:40.316Z,8.56
2018-03-21T12:18:40.460Z,8.30
2018-03-21T12:19:40.622Z,8.13
2018-03-21T12:20:40.763Z,8.05
2018-03-21T12:21:40.920Z,7.98
2018-03-21T12:22:41.067Z,7.90
2018-03-21T12:23:41.227Z,8.13
2018-03-21T12:24:41.380Z,8.18
2018-03-21T12:25:41.534Z,8.24
2018-03-21T12:26:41.683Z,8.51
2018-03-21T12:27:41.835Z,8.37
2018-03-21T12:28:41.987Z,8.38
2018-03-21T12:29:42.140Z,8.12
2018-03-21T12:30:42.313Z,8.06
2018-03-21T12:31:42.699Z,8.00
2018-03-21T12:32:42.602Z,7.94
2018-03-21T12:33:42.767Z,8.03
2018-03-21T12:35:43.057Z,8.20
2018-03-21T12:36:43.212Z,8.45
2018-03-21T12:37:43.366Z,8.55
2018-03-21T12:38:43.515Z,8.56
2018-03-21T12:39:43.669Z,8.58
2018-03-21T12:40:43.822Z,8.27
2018-03-21T12:41:43.980Z,8.18
2018-03-21T12:42:44.134Z,8.18
2018-03-21T12:43:44.274Z,8.38
2018-03-21T12:44:44.507Z,8.49
2018-03-21T12:45:44.572Z,8.52
2018-03-21T12:46:44.726Z,8.49
2018-03-21T12:47:44.874Z,8.51
2018-03-21T12:48:45.039Z,8.64
2018-03-21T12:49:45.178Z,8.61
2018-03-21T12:50:45.335Z,8.49
2018-03-21T12:51:45.487Z,8.36
2018-03-21T12:52:45.637Z,8.44
2018-03-21T12:53:45.790Z,8.38
2018-03-21T12:54:45.954Z,8.51
2018-03-21T12:55:46.180Z,8.53
2018-03-21T12:56:46.253Z,8.46
2018-03-21T12:57:46.407Z,8.66
2018-03-21T12:58:46.563Z,8.71
2018-03-21T12:59:46.756Z,8.76
2018-03-21T13:00:46.881Z,8.70
2018-03-21T13:01:47.026Z,8.53
2018-03-21T13:02:47.187Z,8.49
2018-03-21T13:03:47.341Z,8.63
2018-03-21T13:04:47.488Z,8.74
2018-03-21T13:05:47.633Z,8.78
2018-03-21T13:06:47.776Z,8.99
2018-03-21T13:07:47.927Z,8.81
2018-03-21T13:08:48.076Z,8.66
2018-03-21T13:09:48.235Z,8.20
2018-03-21T13:10:48.393Z,8.16
2018-03-21T13:11:48.550Z,8.51
2018-03-21T13:12:48.693Z,8.45